Terminal Aerodrome Forecast
Issued by NWS

Home | Current Version | Previous Version | Text Only | Print | Product List | Glossary On
Versions: 1 2 3 4 5 6 7 8 9 10 11 12 13 14
000
FTUS46 KLOX 012300 RRA
TAFPRB
TAF
KPRB 012347Z 0200/0224 10008KT P6SM SKC
     FM020400 33005KT P6SM SKC
     FM020800 VRB03KT P6SM SKC
     FM022100 10008KT P6SM SKC=

USA.gov is the U.S. government's official web portal to all federal, state and local government web resources and services.